createdAt,value
2019-05-14T00:03:41.598Z,0.00
2019-05-14T00:08:41.973Z,0.00
2019-05-14T00:13:41.495Z,0.00
2019-05-14T00:18:41.966Z,0.00
2019-05-14T00:23:42.043Z,0.00
2019-05-14T00:28:42.216Z,0.00
2019-05-14T00:33:41.921Z,0.00
2019-05-14T00:38:42.020Z,0.00
2019-05-14T00:43:41.721Z,0.00
2019-05-14T00:48:42.244Z,0.00
2019-05-14T00:53:42.135Z,0.00
2019-05-14T00:58:41.474Z,0.00
2019-05-14T01:03:41.492Z,0.00
2019-05-14T01:08:41.378Z,0.00
2019-05-14T01:13:41.640Z,0.00
2019-05-14T01:18:41.435Z,0.00
2019-05-14T01:23:41.513Z,0.00
2019-05-14T01:28:41.538Z,0.00
2019-05-14T01:33:41.088Z,0.00
2019-05-14T01:38:41.833Z,0.00
2019-05-14T01:43:41.973Z,0.00
2019-05-14T01:48:41.720Z,0.00
2019-05-14T01:53:41.674Z,0.00
2019-05-14T01:58:41.694Z,0.00
2019-05-14T02:03:41.138Z,0.00
2019-05-14T02:08:41.383Z,0.00
2019-05-14T02:13:41.393Z,0.00
2019-05-14T02:18:41.640Z,0.00
2019-05-14T02:23:42.010Z,0.00
2019-05-14T02:28:41.943Z,0.00
2019-05-14T02:33:40.023Z,0.00
2019-05-14T02:38:39.976Z,0.00
2019-05-14T02:43:40.863Z,0.00
2019-05-14T02:48:40.411Z,0.00
2019-05-14T02:53:39.757Z,0.00
2019-05-14T02:58:40.294Z,0.00
2019-05-14T03:03:40.372Z,0.00
2019-05-14T03:08:39.648Z,0.00
2019-05-14T03:13:40.225Z,0.00
2019-05-14T03:18:39.849Z,0.00
2019-05-14T03:23:39.629Z,0.00
2019-05-14T03:28:40.118Z,0.00
2019-05-14T03:33:44.158Z,0.00
2019-05-14T03:38:40.381Z,5.62
2019-05-14T03:43:39.357Z,5.62
2019-05-14T03:48:40.124Z,11.25
2019-05-14T03:53:55.116Z,22.50
2019-05-14T03:58:40.078Z,28.12
2019-05-14T04:03:39.862Z,39.38
2019-05-14T04:08:39.369Z,45.00
2019-05-14T04:13:40.554Z,56.25
2019-05-14T04:18:40.256Z,67.50
2019-05-14T04:23:39.889Z,78.75
2019-05-14T04:28:39.422Z,90.00
2019-05-14T04:33:39.386Z,101.25
2019-05-14T04:38:41.018Z,112.50
2019-05-14T04:43:40.067Z,129.38
2019-05-14T04:48:42.949Z,140.62
2019-05-14T04:53:39.756Z,146.25
2019-05-14T04:58:41.026Z,163.12
2019-05-14T05:03:40.104Z,309.38
2019-05-14T05:08:39.455Z,348.75
2019-05-14T05:13:39.523Z,433.12
2019-05-14T05:18:39.950Z,388.12
2019-05-14T05:23:38.917Z,348.75
2019-05-14T05:28:39.232Z,489.38
2019-05-14T05:33:38.456Z,517.50
2019-05-14T05:38:39.443Z,618.75
2019-05-14T05:43:39.283Z,686.25
2019-05-14T05:48:38.929Z,720.00
2019-05-14T05:53:39.398Z,770.62
2019-05-14T05:58:39.874Z,759.38
2019-05-14T06:03:39.250Z,871.88
2019-05-14T06:08:38.833Z,905.62
2019-05-14T06:13:39.147Z,978.75
2019-05-14T06:18:39.265Z,1057.50
2019-05-14T06:23:38.586Z,1063.12
2019-05-14T06:28:40.804Z,1158.75
2019-05-14T06:33:39.721Z,1260.00
2019-05-14T06:38:38.851Z,1260.00
2019-05-14T06:43:39.309Z,1209.38
2019-05-14T06:48:39.694Z,1181.25
2019-05-14T06:53:39.163Z,1316.25
2019-05-14T06:58:38.979Z,1231.88
2019-05-14T07:03:38.248Z,1445.62
2019-05-14T07:08:39.241Z,1389.38
2019-05-14T07:13:38.514Z,1575.00
2019-05-14T07:18:47.722Z,1305.00
2019-05-14T07:23:38.613Z,1383.75
2019-05-14T07:28:42.160Z,1344.38
2019-05-14T07:33:38.843Z,1316.25
2019-05-14T07:38:39.179Z,1440.00
2019-05-14T07:43:39.111Z,1670.62
2019-05-14T07:48:38.973Z,1530.00
2019-05-14T07:53:41.740Z,1389.38
2019-05-14T07:58:38.692Z,1327.50
2019-05-14T08:03:38.264Z,1822.50
2019-05-14T08:08:38.486Z,1670.62
2019-05-14T08:13:38.765Z,1895.62
2019-05-14T08:18:39.328Z,945.00
2019-05-14T08:23:38.917Z,1856.25
2019-05-14T08:28:38.247Z,1012.50
2019-05-14T08:33:36.358Z,2188.12
2019-05-14T08:38:38.338Z,1091.25
2019-05-14T08:43:36.302Z,1873.12
2019-05-14T08:48:38.605Z,2244.38
2019-05-14T08:53:38.409Z,1715.62
2019-05-14T08:58:38.305Z,2154.38
2019-05-14T09:03:38.645Z,1170.00
2019-05-14T09:08:38.679Z,2441.25
2019-05-14T09:13:38.093Z,1468.12
2019-05-14T09:18:38.245Z,2784.38
2019-05-14T09:23:35.978Z,1012.50
2019-05-14T09:28:35.946Z,1316.25
2019-05-14T09:33:38.664Z,3099.38
2019-05-14T09:38:41.626Z,2671.88
2019-05-14T09:43:39.017Z,798.75
2019-05-14T09:48:37.849Z,2851.88
2019-05-14T09:53:38.142Z,2756.25
2019-05-14T09:58:35.671Z,2795.62
2019-05-14T10:03:35.542Z,3065.62
2019-05-14T10:08:35.570Z,978.75
2019-05-14T10:13:35.444Z,3279.38
2019-05-14T10:18:37.860Z,2986.88
2019-05-14T10:23:35.392Z,3099.38
2019-05-14T10:28:35.373Z,3166.88
2019-05-14T10:33:35.317Z,3217.50
2019-05-14T10:38:35.658Z,1074.38
2019-05-14T10:43:35.816Z,3290.62
2019-05-14T10:48:35.161Z,3313.12
2019-05-14T10:53:35.140Z,1231.88
2019-05-14T10:58:35.080Z,3358.12
2019-05-14T11:03:35.068Z,1074.38
2019-05-14T11:08:34.964Z,928.12
2019-05-14T11:13:34.932Z,2986.88
2019-05-14T11:18:34.877Z,3037.50
2019-05-14T11:23:35.000Z,3318.75
2019-05-14T11:28:34.802Z,3448.12
2019-05-14T11:33:34.764Z,1715.62
2019-05-14T11:38:37.381Z,1833.75
2019-05-14T11:43:34.689Z,1406.25
2019-05-14T11:48:34.629Z,3346.88
2019-05-14T11:53:34.654Z,916.88
2019-05-14T11:58:34.585Z,3026.25
2019-05-14T12:03:34.504Z,1035.00
2019-05-14T12:08:34.460Z,1051.88
2019-05-14T12:13:34.463Z,3487.50
2019-05-14T12:18:34.477Z,3352.50
2019-05-14T12:23:34.338Z,3296.25
2019-05-14T12:28:34.282Z,3262.50
2019-05-14T12:33:34.255Z,3076.88
2019-05-14T12:38:34.376Z,2930.62
2019-05-14T12:43:34.175Z,3150.00
2019-05-14T12:48:34.158Z,2947.50
2019-05-14T12:53:34.086Z,843.75
2019-05-14T12:58:34.050Z,3076.88
2019-05-14T13:03:34.014Z,2795.62
2019-05-14T13:08:34.008Z,2300.62
2019-05-14T13:13:33.937Z,2700.00
2019-05-14T13:18:33.877Z,2795.62
2019-05-14T13:23:34.863Z,1080.00
2019-05-14T13:28:33.867Z,866.25
2019-05-14T13:33:33.747Z,2688.75
2019-05-14T13:38:33.705Z,1698.75
2019-05-14T13:43:33.756Z,2728.12
2019-05-14T13:48:33.632Z,2278.12
2019-05-14T13:53:33.580Z,2491.88
2019-05-14T13:58:33.578Z,2407.50
2019-05-14T14:03:33.507Z,2458.12
2019-05-14T14:08:33.512Z,2525.62
2019-05-14T14:13:33.398Z,2244.38
2019-05-14T14:18:33.405Z,2379.38
2019-05-14T14:23:33.335Z,2221.88
2019-05-14T14:28:33.294Z,2188.12
2019-05-14T14:33:33.242Z,2199.38
2019-05-14T14:38:33.569Z,607.50
2019-05-14T14:43:33.160Z,2188.12
2019-05-14T14:48:33.130Z,1215.00
2019-05-14T14:53:51.088Z,686.25
2019-05-14T14:58:34.045Z,2008.12
2019-05-14T15:03:33.159Z,1918.12
2019-05-14T15:08:33.062Z,1884.38
2019-05-14T15:13:32.925Z,1816.88
2019-05-14T15:18:32.901Z,1771.88
2019-05-14T15:23:32.869Z,1698.75
2019-05-14T15:28:32.808Z,1631.25
2019-05-14T15:33:33.044Z,1068.75
2019-05-14T15:38:32.742Z,1181.25
2019-05-14T15:43:32.680Z,1423.12
2019-05-14T15:48:32.620Z,1181.25
2019-05-14T15:53:33.711Z,1355.62
2019-05-14T15:58:32.590Z,1378.12
2019-05-14T16:03:32.489Z,1035.00
2019-05-14T16:08:32.567Z,1220.62
2019-05-14T16:13:32.402Z,1085.62
2019-05-14T16:18:32.476Z,1035.00
2019-05-14T16:23:38.592Z,933.75
2019-05-14T16:28:32.415Z,950.62
2019-05-14T16:33:33.251Z,883.12
2019-05-14T16:38:32.156Z,838.12
2019-05-14T16:43:32.718Z,793.12
2019-05-14T16:48:32.153Z,703.12
2019-05-14T16:53:32.219Z,765.00
2019-05-14T16:58:32.007Z,472.50
2019-05-14T17:03:33.019Z,433.12
2019-05-14T17:08:31.984Z,416.25
2019-05-14T17:13:31.858Z,399.38
2019-05-14T17:18:31.902Z,354.38
2019-05-14T17:23:31.823Z,343.12
2019-05-14T17:28:31.758Z,360.00
2019-05-14T17:33:31.709Z,399.38
2019-05-14T17:38:31.674Z,371.25
2019-05-14T17:43:31.681Z,348.75
2019-05-14T17:48:31.597Z,292.50
2019-05-14T17:53:31.533Z,292.50
2019-05-14T17:58:31.420Z,258.75
2019-05-14T18:03:31.516Z,230.62
2019-05-14T18:08:31.574Z,219.38
2019-05-14T18:13:31.309Z,202.50
2019-05-14T18:18:31.449Z,180.00
2019-05-14T18:23:31.257Z,163.12
2019-05-14T18:28:31.149Z,146.25
2019-05-14T18:33:31.676Z,129.38
2019-05-14T18:38:31.059Z,112.50
2019-05-14T18:43:30.985Z,95.62
2019-05-14T18:48:30.951Z,78.75
2019-05-14T18:53:31.361Z,67.50
2019-05-14T18:58:30.838Z,56.25
2019-05-14T19:03:30.916Z,45.00
2019-05-14T19:08:30.837Z,33.75
2019-05-14T19:13:30.750Z,22.50
2019-05-14T19:18:30.703Z,16.88
2019-05-14T19:23:30.750Z,11.25
2019-05-14T19:28:30.825Z,5.62
2019-05-14T19:33:30.503Z,0.00
2019-05-14T19:38:30.383Z,0.00
2019-05-14T19:43:30.363Z,0.00
2019-05-14T19:48:32.762Z,0.00
2019-05-14T19:53:30.311Z,0.00
2019-05-14T19:58:30.263Z,0.00
2019-05-14T20:03:30.130Z,0.00
2019-05-14T20:08:30.110Z,0.00
2019-05-14T20:13:30.010Z,0.00
2019-05-14T20:18:29.950Z,0.00
2019-05-14T20:23:30.198Z,0.00
2019-05-14T20:28:29.913Z,0.00
2019-05-14T20:33:29.876Z,0.00
2019-05-14T20:38:29.940Z,0.00
2019-05-14T20:43:29.715Z,0.00
2019-05-14T20:48:29.673Z,0.00
2019-05-14T20:53:29.607Z,0.00
2019-05-14T20:58:29.597Z,0.00
2019-05-14T21:03:29.527Z,0.00
2019-05-14T21:08:29.415Z,0.00
2019-05-14T21:13:29.377Z,0.00
2019-05-14T21:18:35.051Z,0.00
2019-05-14T21:23:30.300Z,0.00
2019-05-14T21:28:30.324Z,0.00
2019-05-14T21:33:30.319Z,0.00
2019-05-14T21:38:29.106Z,0.00
2019-05-14T21:43:29.175Z,0.00
2019-05-14T21:48:29.024Z,0.00
2019-05-14T21:53:28.957Z,0.00
2019-05-14T21:58:29.266Z,0.00
2019-05-14T22:03:28.820Z,0.00
2019-05-14T22:08:30.391Z,0.00
2019-05-14T22:13:28.812Z,0.00
2019-05-14T22:18:28.665Z,0.00
2019-05-14T22:23:29.220Z,0.00
2019-05-14T22:28:28.879Z,0.00
2019-05-14T22:33:28.589Z,0.00
2019-05-14T22:38:29.345Z,0.00
2019-05-14T22:43:28.772Z,0.00
2019-05-14T22:48:28.357Z,0.00
2019-05-14T22:53:30.476Z,0.00
2019-05-14T22:58:32.674Z,0.00
2019-05-14T23:03:28.953Z,0.00
2019-05-14T23:08:28.126Z,0.00
2019-05-14T23:13:28.185Z,0.00
2019-05-14T23:18:28.747Z,0.00
2019-05-14T23:23:28.244Z,0.00
2019-05-14T23:28:41.039Z,0.00
2019-05-14T23:33:28.928Z,0.00
2019-05-14T23:38:29.008Z,0.00
2019-05-14T23:43:28.832Z,0.00
2019-05-14T23:48:27.785Z,0.00
2019-05-14T23:53:29.119Z,0.00
2019-05-14T23:58:28.937Z,0.00
